Time;durP1;ratioP1;P1;durP2;ratioP2;P2;SDS_P1;SDS_P2;PMS_P1;PMS_P2;Temp;Humidity;BMP_temperature;BMP_pressure;BME280_temperature;BME280_humidity;BME280_pressure;Samples;Min_cycle;Max_cycle;Signal;HPM_P1;HPM_P2
2023/08/07 00:00:43;;;;;;;5.70;2.30;;;14.00;99.90;;;;;;5065804;28;20643;-72
2023/08/07 00:03:11;;;;;;;7.93;1.97;;;14.10;99.90;;;;;;5049914;28;20036;-72
2023/08/07 00:05:37;;;;;;;9.00;1.73;;;14.10;99.90;;;;;;5037860;28;20111;-72
2023/08/07 00:08:03;;;;;;;8.37;2.30;;;14.20;99.90;;;;;;5042040;28;20370;-72
2023/08/07 00:10:29;;;;;;;7.30;1.63;;;14.20;99.90;;;;;;5056147;28;20094;-72
2023/08/07 00:12:55;;;;;;;8.47;1.63;;;14.20;99.90;;;;;;5041727;28;20040;-72
2023/08/07 00:15:21;;;;;;;6.37;1.80;;;14.20;99.90;;;;;;5055551;28;20349;-72
2023/08/07 00:17:47;;;;;;;9.70;2.47;;;14.20;99.90;;;;;;5052006;28;20133;-72
2023/08/07 00:20:12;;;;;;;9.40;2.77;;;14.10;99.90;;;;;;5062965;28;20033;-71
2023/08/07 00:22:38;;;;;;;13.60;2.80;;;14.10;99.90;;;;;;5052066;28;20094;-71
2023/08/07 00:25:04;;;;;;;9.63;2.53;;;14.10;99.90;;;;;;5058054;28;20029;-72
2023/08/07 00:27:30;;;;;;;9.50;2.33;;;14.10;99.90;;;;;;5052876;28;20431;-72
2023/08/07 00:29:56;;;;;;;12.47;2.50;;;14.10;99.90;;;;;;5049438;28;20390;-72
2023/08/07 00:32:22;;;;;;;11.27;2.77;;;14.10;99.90;;;;;;5053431;28;20056;-72
2023/08/07 00:34:47;;;;;;;10.97;2.47;;;14.10;99.90;;;;;;5057657;28;20291;-72
2023/08/07 00:37:13;;;;;;;14.10;2.33;;;14.10;99.90;;;;;;5051649;28;20492;-72
2023/08/07 00:39:39;;;;;;;9.40;1.90;;;14.10;99.90;;;;;;5039315;28;20045;-72
2023/08/07 00:42:05;;;;;;;11.93;2.10;;;14.10;99.90;;;;;;5051324;28;20044;-71
2023/08/07 00:44:31;;;;;;;15.83;2.20;;;14.10;99.90;;;;;;5051310;28;20096;-72
2023/08/07 00:46:57;;;;;;;16.63;3.10;;;14.10;99.90;;;;;;5065621;28;20361;-72
2023/08/07 00:49:22;;;;;;;15.53;2.57;;;14.10;99.90;;;;;;5066101;28;20047;-72
2023/08/07 00:51:48;;;;;;;7.93;2.13;;;14.10;99.90;;;;;;5061952;28;20045;-72
2023/08/07 00:54:18;;;;;;;11.63;2.53;;;14.10;99.90;;;;;;5049068;28;20044;-72
2023/08/07 00:56:43;;;;;;;10.53;1.90;;;14.10;99.90;;;;;;5065205;28;20045;-72
2023/08/07 00:59:10;;;;;;;16.70;2.53;;;14.10;99.90;;;;;;5039800;28;20307;-72
2023/08/07 01:01:36;;;;;;;12.80;3.10;;;14.10;99.90;;;;;;5065205;28;20044;-72
2023/08/07 01:04:02;;;;;;;11.83;2.20;;;14.10;99.90;;;;;;5063824;28;20350;-72
2023/08/07 01:06:27;;;;;;;13.17;1.90;;;14.20;99.90;;;;;;5063700;28;20290;-72
2023/08/07 01:08:53;;;;;;;12.43;2.20;;;14.20;99.90;;;;;;5047036;28;20465;-72
2023/08/07 01:11:29;;;;;;;12.37;2.00;;;14.20;99.90;;;;;;5035444;28;20044;-72
2023/08/07 01:14:08;;;;;;;13.90;2.13;;;14.10;99.90;;;;;;5064405;28;20102;-72
2023/08/07 01:16:36;;;;;;;21.80;2.80;;;14.00;99.90;;;;;;5036780;28;20295;-72
2023/08/07 01:19:04;;;;;;;8.93;1.40;;;14.00;99.90;;;;;;5060736;28;20306;-72
2023/08/07 01:21:32;;;;;;;11.67;1.60;;;14.00;99.90;;;;;;5058772;28;20319;-72
2023/08/07 01:23:58;;;;;;;11.97;1.60;;;14.00;99.90;;;;;;5062542;28;20675;-72
2023/08/07 01:26:24;;;;;;;17.07;2.00;;;13.90;99.90;;;;;;5059437;28;20298;-72
2023/08/07 01:29:12;;;;;;;10.80;1.60;;;13.90;99.90;;;;;;5057887;28;20552;-72
2023/08/07 01:31:39;;;;;;;12.20;1.60;;;13.80;99.90;;;;;;5056401;28;20501;-72
2023/08/07 01:34:08;;;;;;;9.90;1.33;;;13.80;99.90;;;;;;5059611;28;20275;-72
2023/08/07 01:36:35;;;;;;;14.27;1.77;;;13.70;99.90;;;;;;5061496;28;20301;-72
2023/08/07 01:39:03;;;;;;;10.60;2.13;;;13.70;99.90;;;;;;5066027;28;20307;-72
2023/08/07 01:41:29;;;;;;;9.47;1.80;;;13.70;99.90;;;;;;5056730;28;20280;-72
2023/08/07 01:43:55;;;;;;;14.03;2.47;;;13.60;99.90;;;;;;5062848;28;20293;-72
2023/08/07 01:46:20;;;;;;;9.93;1.83;;;13.60;99.90;;;;;;5063307;28;20094;-72
2023/08/07 01:48:46;;;;;;;14.77;2.33;;;13.50;99.90;;;;;;5061012;28;20099;-72
2023/08/07 01:51:12;;;;;;;20.63;2.20;;;13.50;99.90;;;;;;5065978;28;20478;-72
2023/08/07 01:53:38;;;;;;;15.60;2.00;;;13.50;99.90;;;;;;5046405;28;20413;-72
2023/08/07 01:56:04;;;;;;;10.20;2.13;;;13.50;99.90;;;;;;5068750;28;20044;-72
2023/08/07 01:58:29;;;;;;;11.10;2.07;;;13.40;99.90;;;;;;5066020;28;20064;-72
2023/08/07 02:00:55;;;;;;;9.53;1.83;;;13.40;99.90;;;;;;5046295;28;20131;-72
2023/08/07 02:03:21;;;;;;;13.10;2.13;;;13.30;99.90;;;;;;5064658;28;20064;-72
2023/08/07 02:05:47;;;;;;;16.10;2.27;;;13.30;99.90;;;;;;5051147;28;20041;-72
2023/08/07 02:08:12;;;;;;;15.17;2.30;;;13.30;99.90;;;;;;5060353;28;20412;-72
2023/08/07 02:10:38;;;;;;;20.87;3.20;;;13.30;99.90;;;;;;5066593;28;20283;-72
2023/08/07 02:13:04;;;;;;;18.10;2.83;;;13.30;99.90;;;;;;5043659;28;20044;-72
2023/08/07 02:15:30;;;;;;;15.03;2.60;;;13.20;99.90;;;;;;5069393;28;20564;-72
2023/08/07 02:17:55;;;;;;;19.73;2.67;;;13.20;99.90;;;;;;5062202;28;20507;-72
2023/08/07 02:20:21;;;;;;;15.20;2.60;;;13.10;99.90;;;;;;5043476;28;20406;-72
2023/08/07 02:22:47;;;;;;;14.27;2.57;;;13.10;99.90;;;;;;5066091;28;20076;-72
2023/08/07 02:25:12;;;;;;;12.03;2.50;;;13.10;99.90;;;;;;5063243;28;20033;-72
2023/08/07 02:27:38;;;;;;;18.80;2.40;;;13.10;99.90;;;;;;5043571;28;20182;-72
2023/08/07 02:30:05;;;;;;;16.40;2.73;;;13.10;99.90;;;;;;5053930;28;20107;-72
2023/08/07 02:32:31;;;;;;;10.97;2.13;;;13.20;99.90;;;;;;5046969;28;20033;-72
2023/08/07 02:34:56;;;;;;;13.77;2.80;;;13.20;99.90;;;;;;5033622;28;20285;-72
2023/08/07 02:37:22;;;;;;;17.73;3.30;;;13.30;99.90;;;;;;5056036;28;20044;-72
2023/08/07 02:39:48;;;;;;;18.13;3.43;;;13.40;99.90;;;;;;5041869;28;20068;-72
2023/08/07 02:42:14;;;;;;;14.30;2.87;;;13.50;99.90;;;;;;5059641;28;20036;-72
2023/08/07 02:44:39;;;;;;;13.57;3.00;;;13.50;99.90;;;;;;5051740;28;20063;-72
2023/08/07 02:47:06;;;;;;;21.13;2.83;;;13.60;99.90;;;;;;5065200;28;20056;-72
2023/08/07 02:49:32;;;;;;;16.53;3.23;;;13.60;99.90;;;;;;5066308;28;20534;-73
2023/08/07 02:51:58;;;;;;;18.03;3.20;;;13.70;99.90;;;;;;5039859;28;20303;-73
2023/08/07 02:54:24;;;;;;;16.13;2.57;;;13.70;99.90;;;;;;5044059;28;20043;-72
2023/08/07 02:56:49;;;;;;;7.27;2.47;;;13.70;99.90;;;;;;5040634;28;20576;-72
2023/08/07 02:59:16;;;;;;;10.73;2.87;;;13.70;99.90;;;;;;5061243;28;20523;-72
2023/08/07 03:01:44;;;;;;;12.57;3.23;;;13.80;99.90;;;;;;5052524;28;20036;-72
2023/08/07 03:04:09;;;;;;;22.13;3.70;;;13.80;99.90;;;;;;5069545;28;20278;-73
2023/08/07 03:06:35;;;;;;;23.10;3.80;;;13.80;99.90;;;;;;5069208;28;20279;-73
2023/08/07 03:09:01;;;;;;;16.13;4.23;;;13.80;99.90;;;;;;5044508;28;20039;-73
2023/08/07 03:11:27;;;;;;;21.03;4.00;;;13.90;99.90;;;;;;5051227;28;20040;-72
2023/08/07 03:13:52;;;;;;;25.40;4.23;;;13.90;99.90;;;;;;5066166;28;20076;-72
2023/08/07 03:16:18;;;;;;;20.20;3.60;;;13.90;99.90;;;;;;5067540;28;20504;-72
2023/08/07 03:18:44;;;;;;;22.30;4.43;;;13.90;99.90;;;;;;5037688;28;20095;-72
2023/08/07 03:21:09;;;;;;;26.20;4.47;;;13.90;99.90;;;;;;5065361;28;20040;-72
2023/08/07 03:23:35;;;;;;;16.50;3.80;;;13.90;99.90;;;;;;5045137;28;20044;-72
2023/08/07 03:26:11;;;;;;;17.73;3.67;;;13.90;99.90;;;;;;5060547;28;20036;-72
2023/08/07 03:28:38;;;;;;;17.93;4.00;;;13.80;99.90;;;;;;5059426;28;20049;-72
2023/08/07 03:31:04;;;;;;;19.47;3.90;;;13.80;99.90;;;;;;5046219;28;20302;-73
2023/08/07 03:33:30;;;;;;;14.47;3.97;;;13.80;99.90;;;;;;5042537;28;20279;-72
2023/08/07 03:35:55;;;;;;;23.23;4.47;;;13.70;99.90;;;;;;5051881;28;20304;-73
2023/08/07 03:38:21;;;;;;;16.50;4.80;;;13.70;99.90;;;;;;5057258;28;20489;-72
2023/08/07 03:40:47;;;;;;;17.83;3.67;;;13.70;99.90;;;;;;5058344;28;20463;-72
2023/08/07 03:43:13;;;;;;;17.53;3.90;;;13.70;99.90;;;;;;5062966;28;20190;-72
2023/08/07 03:45:39;;;;;;;14.57;3.37;;;13.70;99.90;;;;;;5036823;28;20075;-72
2023/08/07 03:48:05;;;;;;;17.43;3.73;;;13.60;99.90;;;;;;5037638;28;20037;-72
2023/08/07 03:50:34;;;;;;;11.10;4.03;;;13.60;99.90;;;;;;5056555;28;20295;-72
2023/08/07 03:53:01;;;;;;;10.53;3.37;;;13.60;99.90;;;;;;5060556;28;20044;-73
2023/08/07 03:55:26;;;;;;;6.80;2.40;;;13.60;99.90;;;;;;5059517;28;20282;-73
2023/08/07 03:57:52;;;;;;;10.80;3.07;;;13.60;99.90;;;;;;5066680;28;20289;-73
2023/08/07 04:00:18;;;;;;;13.90;3.00;;;13.50;99.90;;;;;;5068117;28;20041;-73
2023/08/07 04:02:44;;;;;;;19.57;3.73;;;13.60;99.90;;;;;;5036724;28;20106;-72
2023/08/07 04:05:10;;;;;;;10.67;2.30;;;13.50;99.90;;;;;;5049250;28;20311;-72
2023/08/07 04:07:36;;;;;;;9.00;2.80;;;13.60;99.90;;;;;;5043279;28;20059;-72
2023/08/07 04:10:02;;;;;;;12.97;3.20;;;13.60;99.90;;;;;;5068630;28;20041;-72
2023/08/07 04:12:27;;;;;;;8.87;2.73;;;13.60;99.90;;;;;;5064731;28;20116;-72
2023/08/07 04:14:53;;;;;;;10.27;2.70;;;13.60;99.90;;;;;;5065900;28;20055;-72
2023/08/07 04:17:19;;;;;;;16.23;3.57;;;13.60;99.90;;;;;;5050135;28;20504;-72
2023/08/07 04:19:44;;;;;;;17.47;3.80;;;13.50;99.90;;;;;;5039083;28;20063;-72
2023/08/07 04:22:10;;;;;;;21.93;3.60;;;13.50;99.90;;;;;;5063977;28;20041;-72
2023/08/07 04:24:36;;;;;;;23.80;3.90;;;13.50;99.90;;;;;;5044161;28;20056;-72
2023/08/07 04:27:02;;;;;;;14.10;3.03;;;13.40;99.90;;;;;;5064608;28;20489;-73
2023/08/07 04:29:28;;;;;;;14.23;3.10;;;13.40;99.90;;;;;;5048866;28;20366;-72
2023/08/07 04:31:54;;;;;;;15.27;3.60;;;13.40;99.90;;;;;;5050455;28;20361;-73
2023/08/07 04:34:20;;;;;;;16.17;3.53;;;13.40;99.90;;;;;;5048523;28;20097;-72
2023/08/07 04:36:45;;;;;;;13.37;3.00;;;13.40;99.90;;;;;;5065757;28;20534;-72
2023/08/07 04:39:13;;;;;;;14.77;2.83;;;13.40;99.90;;;;;;5033370;28;20048;-72
2023/08/07 04:41:39;;;;;;;17.73;3.37;;;13.40;99.90;;;;;;5035366;28;20146;-72
2023/08/07 04:44:04;;;;;;;12.93;3.60;;;13.40;99.90;;;;;;5049878;28;20298;-73
2023/08/07 04:46:30;;;;;;;13.10;3.20;;;13.40;99.90;;;;;;5050373;28;20025;-72
2023/08/07 04:48:56;;;;;;;19.70;4.67;;;13.40;99.90;;;;;;5057126;28;20036;-73
2023/08/07 04:51:22;;;;;;;18.00;4.00;;;13.40;99.90;;;;;;5039598;28;20305;-72
2023/08/07 04:53:50;;;;;;;15.80;3.80;;;13.40;99.90;;;;;;5055581;28;20151;-72
2023/08/07 04:56:17;;;;;;;16.33;3.30;;;13.40;99.90;;;;;;5044757;28;20079;-72
2023/08/07 04:58:42;;;;;;;14.50;4.10;;;13.40;99.90;;;;;;5039605;28;20312;-72
2023/08/07 05:01:08;;;;;;;11.67;3.17;;;13.40;99.90;;;;;;5039080;28;20356;-72
2023/08/07 05:03:34;;;;;;;18.73;4.47;;;13.40;99.90;;;;;;5055656;28;20068;-73
2023/08/07 05:06:01;;;;;;;16.63;4.00;;;13.30;99.90;;;;;;5059368;28;20044;-73
2023/08/07 05:08:27;;;;;;;20.70;4.53;;;13.30;99.90;;;;;;5058579;28;20055;-73
2023/08/07 05:10:53;;;;;;;17.97;4.53;;;13.30;99.90;;;;;;5055298;28;20336;-73
2023/08/07 05:13:18;;;;;;;18.60;4.20;;;13.40;99.90;;;;;;5056655;28;20055;-73
2023/08/07 05:15:47;;;;;;;17.77;3.83;;;13.40;99.90;;;;;;5058054;28;20052;-73
2023/08/07 05:18:13;;;;;;;22.13;5.27;;;13.50;99.90;;;;;;5063506;28;20045;-72
2023/08/07 05:20:39;;;;;;;20.67;4.17;;;13.50;99.90;;;;;;5050776;28;20290;-72
2023/08/07 05:23:05;;;;;;;19.30;3.90;;;13.60;99.90;;;;;;5054429;28;20119;-73
2023/08/07 05:25:30;;;;;;;15.20;3.63;;;13.60;99.90;;;;;;5058720;28;20100;-74
2023/08/07 05:27:56;;;;;;;15.33;3.60;;;13.60;99.90;;;;;;5059988;28;20039;-75
2023/08/07 05:30:22;;;;;;;14.00;2.97;;;13.60;99.90;;;;;;5056350;28;20151;-74
2023/08/07 05:32:47;;;;;;;13.80;2.77;;;13.50;99.90;;;;;;5065575;28;20705;-75
2023/08/07 05:35:14;;;;;;;9.60;2.23;;;13.50;99.90;;;;;;5041537;28;20039;-73
2023/08/07 05:37:39;;;;;;;11.90;3.07;;;13.60;99.90;;;;;;5045252;28;20943;-72
2023/08/07 05:40:06;;;;;;;9.47;3.07;;;13.50;99.90;;;;;;5053103;28;20331;-72
2023/08/07 05:42:32;;;;;;;13.63;2.77;;;13.50;99.90;;;;;;5055741;28;20384;-72
2023/08/07 05:44:58;;;;;;;9.63;3.00;;;13.50;99.90;;;;;;5037781;28;20289;-72
2023/08/07 05:47:24;;;;;;;11.97;3.07;;;13.50;99.90;;;;;;5036875;28;20056;-72
2023/08/07 05:49:50;;;;;;;17.20;3.67;;;13.50;99.90;;;;;;5048287;28;20280;-72
2023/08/07 05:52:17;;;;;;;14.20;3.40;;;13.50;99.90;;;;;;5049051;28;20123;-71
2023/08/07 05:54:43;;;;;;;14.87;3.17;;;13.60;99.90;;;;;;5051215;28;20124;-71
2023/08/07 05:57:09;;;;;;;15.43;3.50;;;13.60;99.90;;;;;;5032817;28;20424;-72
2023/08/07 05:59:36;;;;;;;11.77;3.57;;;13.60;99.90;;;;;;5051678;28;20037;-71
2023/08/07 06:02:02;;;;;;;18.07;2.93;;;13.60;99.90;;;;;;5051214;28;20283;-71
2023/08/07 06:04:28;;;;;;;12.03;2.83;;;13.60;99.90;;;;;;5048240;28;20775;-72
2023/08/07 06:06:54;;;;;;;13.13;2.73;;;13.60;99.90;;;;;;5046666;28;20295;-72
2023/08/07 06:09:21;;;;;;;7.87;2.80;;;13.50;99.90;;;;;;5051363;28;20636;-72
2023/08/07 06:11:47;;;;;;;9.53;2.90;;;13.40;99.90;;;;;;5045748;28;20094;-71
2023/08/07 06:14:13;;;;;;;7.47;2.23;;;13.40;99.90;;;;;;5042308;28;20289;-71
2023/08/07 06:16:39;;;;;;;10.50;3.07;;;13.40;99.90;;;;;;5057253;28;20286;-71
2023/08/07 06:19:04;;;;;;;9.40;2.03;;;13.40;99.90;;;;;;5033742;28;20048;-72
2023/08/07 06:21:30;;;;;;;10.73;2.50;;;13.40;99.90;;;;;;5029055;28;20084;-72
2023/08/07 06:23:56;;;;;;;14.33;2.53;;;13.40;99.90;;;;;;5039649;28;20041;-72
2023/08/07 06:26:22;;;;;;;14.23;2.67;;;13.40;99.90;;;;;;5032331;28;20339;-72
2023/08/07 06:28:48;;;;;;;8.80;2.70;;;13.40;99.90;;;;;;5046140;28;20387;-72
2023/08/07 06:31:15;;;;;;;9.70;2.30;;;13.50;99.90;;;;;;5036539;28;20055;-72
2023/08/07 06:33:41;;;;;;;11.30;2.00;;;13.60;99.90;;;;;;5035760;28;20078;-72
2023/08/07 06:36:10;;;;;;;11.53;3.00;;;13.60;99.90;;;;;;5044061;28;20294;-71
2023/08/07 06:38:36;;;;;;;11.00;2.23;;;13.70;99.90;;;;;;5035762;28;20052;-73
2023/08/07 06:41:02;;;;;;;7.23;2.43;;;13.80;99.90;;;;;;5056789;28;20283;-72
2023/08/07 06:43:27;;;;;;;13.80;2.77;;;13.90;99.90;;;;;;5034349;28;20066;-72
2023/08/07 06:45:54;;;;;;;8.13;2.10;;;14.00;99.90;;;;;;5041825;28;20052;-72
2023/08/07 06:48:20;;;;;;;9.00;1.83;;;14.00;99.90;;;;;;5053456;28;20064;-73
2023/08/07 06:50:47;;;;;;;11.17;2.10;;;14.10;99.90;;;;;;5053003;28;20295;-73
2023/08/07 06:53:13;;;;;;;11.60;1.97;;;14.10;99.90;;;;;;5039987;28;20109;-73
2023/08/07 06:55:40;;;;;;;8.43;2.03;;;14.10;99.90;;;;;;5041964;28;20298;-73
2023/08/07 06:58:06;;;;;;;6.57;1.80;;;14.10;99.90;;;;;;5063306;28;20553;-73
2023/08/07 07:00:33;;;;;;;5.63;1.53;;;13.80;99.90;;;;;;5052657;28;20311;-73
2023/08/07 07:02:59;;;;;;;7.97;1.77;;;13.50;99.90;;;;;;5046746;28;20028;-73
2023/08/07 07:05:25;;;;;;;8.37;1.87;;;13.20;99.90;;;;;;5042641;28;20290;-73
2023/08/07 07:07:50;;;;;;;7.73;1.70;;;13.10;99.90;;;;;;5057440;28;20119;-73
2023/08/07 07:10:16;;;;;;;5.43;2.03;;;13.00;99.90;;;;;;5047212;28;20048;-73
2023/08/07 07:12:42;;;;;;;7.40;2.00;;;13.10;99.90;;;;;;5039556;28;20088;-73
2023/08/07 07:15:08;;;;;;;14.23;2.83;;;13.10;99.90;;;;;;5037534;28;20075;-73
2023/08/07 07:17:34;;;;;;;12.00;3.17;;;13.20;99.90;;;;;;5040111;28;20033;-73
2023/08/07 07:20:00;;;;;;;9.93;2.47;;;13.30;99.90;;;;;;5066308;28;20706;-73
2023/08/07 07:22:26;;;;;;;8.80;2.00;;;13.30;99.90;;;;;;5037253;28;20693;-73
2023/08/07 07:24:51;;;;;;;8.20;2.60;;;13.50;99.90;;;;;;5036672;28;20033;-73
2023/08/07 07:27:17;;;;;;;8.47;2.57;;;13.60;99.90;;;;;;5056255;28;20044;-73
2023/08/07 07:29:43;;;;;;;7.07;1.83;;;13.80;99.90;;;;;;5056407;28;20059;-73
2023/08/07 07:32:09;;;;;;;13.10;2.67;;;13.90;99.90;;;;;;5056659;28;20124;-73
2023/08/07 07:34:34;;;;;;;12.07;2.40;;;14.10;99.90;;;;;;5055733;28;20044;-73
2023/08/07 07:37:00;;;;;;;9.37;2.60;;;14.30;99.90;;;;;;5054074;28;20588;-73
2023/08/07 07:39:26;;;;;;;7.07;2.03;;;14.50;99.90;;;;;;5036002;28;20041;-73
2023/08/07 07:41:51;;;;;;;12.63;3.20;;;14.60;99.90;;;;;;5060855;28;20028;-74
2023/08/07 07:44:17;;;;;;;10.63;2.77;;;14.30;99.90;;;;;;5046766;28;20477;-74
2023/08/07 07:46:43;;;;;;;11.57;2.90;;;13.80;99.90;;;;;;5041204;28;20040;-74
2023/08/07 07:49:08;;;;;;;7.33;2.87;;;13.50;99.90;;;;;;5038401;28;20123;-74
2023/08/07 07:51:35;;;;;;;9.23;2.67;;;13.40;99.90;;;;;;5059651;28;20076;-74
2023/08/07 07:54:01;;;;;;;12.67;2.90;;;13.40;99.90;;;;;;5052090;28;20079;-74
2023/08/07 07:56:26;;;;;;;14.17;3.43;;;13.40;99.90;;;;;;5056024;28;20275;-74
2023/08/07 07:58:52;;;;;;;16.17;3.30;;;13.40;99.90;;;;;;5056930;28;20162;-74
2023/08/07 08:01:18;;;;;;;12.97;3.57;;;13.40;99.90;;;;;;5053905;28;20041;-74
2023/08/07 08:03:44;;;;;;;14.63;3.77;;;13.50;99.90;;;;;;5042559;28;20089;-74
2023/08/07 08:06:12;;;;;;;14.47;3.47;;;13.60;99.90;;;;;;5037245;28;20036;-73
2023/08/07 08:08:37;;;;;;;14.57;3.30;;;13.60;99.90;;;;;;5061831;28;20135;-74
2023/08/07 08:11:03;;;;;;;12.67;2.87;;;13.70;99.90;;;;;;5060426;28;20428;-73
2023/08/07 08:13:29;;;;;;;10.87;3.00;;;13.80;99.90;;;;;;5039473;28;20089;-73
2023/08/07 08:15:55;;;;;;;14.03;3.47;;;14.00;99.90;;;;;;5041960;28;20786;-73
2023/08/07 08:18:21;;;;;;;12.53;3.30;;;14.20;99.90;;;;;;5040734;28;20154;-73
2023/08/07 08:20:46;;;;;;;11.97;2.93;;;14.40;99.90;;;;;;5055409;28;20101;-73
2023/08/07 08:23:12;;;;;;;11.13;1.97;;;14.50;99.90;;;;;;5060712;28;20419;-73
2023/08/07 08:25:38;;;;;;;9.23;2.57;;;14.50;99.90;;;;;;5056175;28;20083;-74
2023/08/07 08:28:04;;;;;;;7.33;2.23;;;14.30;99.90;;;;;;5053286;28;20399;-73
2023/08/07 08:30:29;;;;;;;10.63;1.67;;;14.20;99.90;;;;;;5051430;28;20087;-73
2023/08/07 08:32:55;;;;;;;7.53;1.63;;;14.20;96.90;;;;;;5032452;28;20048;-73
2023/08/07 08:35:21;;;;;;;6.47;1.60;;;14.30;96.00;;;;;;5052594;28;20037;-73
2023/08/07 08:37:47;;;;;;;7.53;1.73;;;14.40;97.30;;;;;;5052169;28;20378;-73
2023/08/07 08:40:17;;;;;;;12.93;2.37;;;14.50;96.10;;;;;;5037136;28;20037;-74
2023/08/07 08:42:43;;;;;;;6.60;1.80;;;14.60;96.20;;;;;;5051999;28;20106;-74
2023/08/07 08:45:11;;;;;;;11.40;1.70;;;14.70;94.90;;;;;;5047235;28;20767;-74
2023/08/07 08:47:38;;;;;;;8.27;1.50;;;14.80;94.80;;;;;;5043148;28;20767;-74
2023/08/07 08:50:11;;;;;;;11.30;2.20;;;14.90;95.70;;;;;;5052084;28;20286;-74
2023/08/07 08:52:41;;;;;;;10.07;2.57;;;15.20;92.40;;;;;;5054864;28;20333;-73
2023/08/07 08:55:08;;;;;;;6.87;2.27;;;15.40;93.70;;;;;;5057660;28;20432;-73
2023/08/07 08:57:35;;;;;;;8.77;2.07;;;15.40;92.10;;;;;;5055810;28;20283;-74
2023/08/07 09:00:07;;;;;;;8.73;2.67;;;15.20;88.50;;;;;;5037120;28;20407;-73
2023/08/07 09:02:33;;;;;;;10.83;2.70;;;15.10;88.90;;;;;;5048736;28;20296;-73
2023/08/07 09:04:59;;;;;;;9.13;2.43;;;15.10;91.10;;;;;;5051339;28;20318;-73
2023/08/07 09:07:26;;;;;;;11.63;2.53;;;15.20;92.20;;;;;;5035934;28;20337;-73
2023/08/07 09:09:53;;;;;;;10.70;2.10;;;15.40;86.80;;;;;;5058526;28;20335;-74
2023/08/07 09:12:27;;;;;;;6.67;2.00;;;15.40;86.80;;;;;;5042044;28;20718;-74
2023/08/07 09:14:56;;;;;;;11.07;2.45;;;15.40;88.60;;;;;;5037435;28;20283;-74
2023/08/07 09:17:29;;;;;;;12.20;2.40;;;15.50;90.60;;;;;;5049323;28;20048;-72
2023/08/07 09:19:54;;;;;;;9.30;2.10;;;15.60;90.10;;;;;;5049324;28;20300;-72
2023/08/07 09:22:20;;;;;;;7.07;1.47;;;15.80;89.20;;;;;;5029773;28;20813;-72
2023/08/07 09:24:46;;;;;;;8.63;1.50;;;15.80;83.20;;;;;;5033009;28;20041;-72
2023/08/07 09:27:12;;;;;;;8.30;2.00;;;15.70;82.00;;;;;;5034960;28;20043;-71
2023/08/07 09:29:42;;;;;;;14.27;1.73;;;15.60;81.30;;;;;;5046166;28;20806;-71
2023/08/07 09:32:14;;;;;;;9.63;1.70;;;15.70;81.60;;;;;;5052731;28;20302;-71
2023/08/07 09:34:41;;;;;;;9.53;1.93;;;15.90;82.20;;;;;;5052703;28;20349;-72
2023/08/07 09:37:08;;;;;;;6.47;1.83;;;16.20;82.90;;;;;;5057641;28;20283;-72
2023/08/07 09:39:35;;;;;;;7.50;1.60;;;16.20;83.20;;;;;;5058570;28;20703;-72
2023/08/07 09:42:02;;;;;;;10.67;1.70;;;16.10;79.60;;;;;;5055186;28;20709;-71
2023/08/07 09:44:38;;;;;;;8.30;1.70;;;16.00;82.30;;;;;;5047865;28;20279;-73
2023/08/07 09:47:33;;;;;;;8.33;2.17;;;15.70;79.20;;;;;;5031634;28;20616;-73
2023/08/07 09:49:58;;;;;;;7.40;1.48;;;15.50;81.10;;;;;;5046646;28;20544;-71
2023/08/07 09:52:25;;;;;;;8.77;2.00;;;15.40;81.20;;;;;;5038795;28;20037;-71
2023/08/07 09:54:54;;;;;;;10.27;2.10;;;15.50;83.70;;;;;;5040945;28;20123;-71
2023/08/07 09:57:20;;;;;;;8.37;2.10;;;15.60;83.60;;;;;;5047024;28;20307;-71
2023/08/07 09:59:50;;;;;;;9.23;1.90;;;15.60;85.80;;;;;;5052491;28;20881;-71
2023/08/07 10:02:16;;;;;;;9.50;1.33;;;15.60;82.20;;;;;;5052518;28;20202;-72
2023/08/07 10:04:42;;;;;;;9.83;1.97;;;15.70;84.80;;;;;;5031733;28;20301;-71
2023/08/07 10:07:10;;;;;;;7.47;1.93;;;15.90;82.60;;;;;;5049564;28;20717;-71
2023/08/07 10:09:36;;;;;;;11.33;1.90;;;16.20;83.40;;;;;;5055175;28;20049;-71
2023/08/07 10:12:02;;;;;;;7.83;1.63;;;16.60;83.50;;;;;;5050279;28;20284;-71
2023/08/07 10:14:28;;;;;;;8.93;1.50;;;16.80;79.20;;;;;;5039293;28;20036;-71
2023/08/07 10:16:54;;;;;;;5.53;1.37;;;16.70;76.90;;;;;;5058865;28;20287;-71
2023/08/07 10:19:20;;;;;;;6.07;1.50;;;16.70;75.40;;;;;;5062391;28;20354;-71
2023/08/07 10:21:47;;;;;;;6.53;1.40;;;16.80;77.20;;;;;;5060861;28;20052;-71
2023/08/07 10:24:13;;;;;;;8.57;1.40;;;16.90;77.00;;;;;;5061441;28;20076;-71
2023/08/07 10:26:44;;;;;;;6.17;1.53;;;17.10;76.60;;;;;;5056162;28;20287;-71
2023/08/07 10:29:14;;;;;;;5.90;1.30;;;17.20;74.40;;;;;;5057473;28;20296;-73
2023/08/07 10:31:42;;;;;;;6.37;1.17;;;17.30;73.60;;;;;;5056314;28;20297;-71
2023/08/07 10:34:08;;;;;;;9.47;1.87;;;17.10;72.70;;;;;;5057151;28;20295;-71
2023/08/07 10:36:35;;;;;;;6.40;1.40;;;16.90;72.00;;;;;;5055039;28;20294;-71
2023/08/07 10:39:16;;;;;;;7.87;1.70;;;17.00;76.80;;;;;;5056416;28;20040;-71
2023/08/07 10:41:46;;;;;;;8.73;1.90;;;17.00;74.50;;;;;;5041782;28;20298;-71
2023/08/07 10:44:22;;;;;;;8.90;1.53;;;17.10;76.70;;;;;;5061107;28;20298;-71
2023/08/07 10:46:57;;;;;;;6.50;1.53;;;17.10;75.20;;;;;;5061932;28;20274;-71
2023/08/07 10:49:37;;;;;;;7.80;1.83;;;17.10;76.10;;;;;;5056789;28;20279;-71
2023/08/07 10:52:16;;;;;;;7.70;1.30;;;17.30;76.80;;;;;;5038240;28;20281;-71
2023/08/07 10:54:47;;;;;;;9.20;1.30;;;17.60;75.90;;;;;;5059239;28;20291;-71
2023/08/07 10:57:15;;;;;;;6.00;1.10;;;17.50;73.00;;;;;;5053573;28;21395;-71
2023/08/07 11:00:12;;;;;;;8.37;1.60;;;17.40;75.50;;;;;;5050764;28;20295;-72
2023/08/07 11:02:41;;;;;;;6.03;1.20;;;17.50;72.50;;;;;;5057641;28;20287;-72
2023/08/07 11:05:08;;;;;;;9.40;1.53;;;17.50;70.30;;;;;;5037192;28;20429;-72
2023/08/07 11:07:34;;;;;;;9.23;1.63;;;17.50;72.60;;;;;;5060505;28;20279;-72
2023/08/07 11:09:59;;;;;;;5.60;1.27;;;17.50;71.00;;;;;;5048648;28;20282;-72
2023/08/07 11:12:27;;;;;;;6.40;1.60;;;17.30;70.20;;;;;;5058220;28;20048;-71
2023/08/07 11:14:56;;;;;;;8.50;1.80;;;17.20;73.00;;;;;;5053508;28;20128;-72
2023/08/07 11:17:28;;;;;;;7.83;1.83;;;17.30;73.10;;;;;;5041847;28;20290;-72
2023/08/07 11:19:55;;;;;;;7.83;1.63;;;17.40;73.60;;;;;;5041035;28;20303;-72
2023/08/07 11:22:20;;;;;;;7.90;1.93;;;17.50;71.80;;;;;;5044715;28;20413;-72
2023/08/07 11:24:47;;;;;;;7.83;1.47;;;17.50;74.20;;;;;;5059959;28;20313;-71
2023/08/07 11:27:13;;;;;;;8.87;2.00;;;17.60;72.50;;;;;;5063617;28;20590;-72
2023/08/07 11:29:38;;;;;;;5.97;1.50;;;17.60;72.70;;;;;;5056415;28;20327;-72
2023/08/07 11:32:05;;;;;;;6.10;1.27;;;17.50;72.70;;;;;;5066080;28;20098;-71
2023/08/07 11:34:31;;;;;;;6.57;1.60;;;17.40;72.70;;;;;;5039967;28;20637;-71
2023/08/07 11:36:57;;;;;;;6.90;1.70;;;17.30;74.80;;;;;;5038317;28;20286;-71
2023/08/07 11:39:24;;;;;;;4.93;1.57;;;17.00;71.70;;;;;;5063764;28;20555;-72
2023/08/07 11:41:53;;;;;;;6.50;1.90;;;16.60;75.90;;;;;;5040097;28;20299;-72
2023/08/07 11:44:19;;;;;;;4.93;1.67;;;16.20;78.60;;;;;;5033695;28;20767;-72
2023/08/07 11:46:45;;;;;;;8.27;2.40;;;15.80;82.10;;;;;;5037702;28;20291;-72
2023/08/07 11:49:12;;;;;;;8.60;2.90;;;15.60;84.50;;;;;;5053121;28;20044;-72
2023/08/07 11:51:38;;;;;;;10.77;2.00;;;15.50;86.40;;;;;;5036432;28;20664;-71
2023/08/07 11:54:04;;;;;;;7.47;2.03;;;15.60;88.30;;;;;;5040383;28;20294;-71
2023/08/07 11:56:30;;;;;;;8.63;1.50;;;15.80;87.70;;;;;;5047323;28;20294;-72
2023/08/07 11:58:57;;;;;;;6.47;1.60;;;16.00;88.60;;;;;;5061377;28;20032;-70
2023/08/07 12:01:24;;;;;;;6.43;1.50;;;16.30;87.50;;;;;;5060921;28;20283;-71
2023/08/07 12:04:07;;;;;;;7.70;1.63;;;16.70;85.70;;;;;;5042563;28;20279;-71
2023/08/07 12:06:35;;;;;;;9.30;1.83;;;17.00;84.70;;;;;;5060236;28;20291;-71
2023/08/07 12:09:01;;;;;;;5.90;1.57;;;17.10;83.60;;;;;;5065339;28;20287;-71
2023/08/07 12:11:29;;;;;;;6.93;1.80;;;16.90;82.10;;;;;;5046388;28;20608;-71
2023/08/07 12:13:55;;;;;;;8.17;2.07;;;16.60;83.10;;;;;;5064596;28;20291;-72
2023/08/07 12:16:21;;;;;;;9.63;2.00;;;16.20;86.00;;;;;;5062488;28;20360;-72
2023/08/07 12:18:51;;;;;;;4.80;1.57;;;15.90;87.40;;;;;;5060277;28;20044;-72
2023/08/07 12:21:23;;;;;;;7.10;2.20;;;15.90;89.00;;;;;;5051198;28;20091;-72
2023/08/07 12:23:50;;;;;;;7.97;1.83;;;15.90;88.80;;;;;;5057804;28;20286;-73
2023/08/07 12:26:16;;;;;;;6.90;2.10;;;16.00;89.80;;;;;;5048894;28;20271;-73
2023/08/07 12:28:42;;;;;;;9.90;2.40;;;16.00;86.60;;;;;;5056399;28;20838;-73
2023/08/07 12:31:08;;;;;;;7.47;2.40;;;16.10;87.40;;;;;;5039259;28;20303;-72
2023/08/07 12:33:34;;;;;;;6.83;1.67;;;16.20;87.00;;;;;;5054762;28;20501;-72
2023/08/07 12:36:00;;;;;;;4.93;1.57;;;16.20;84.90;;;;;;5061273;28;20796;-72
2023/08/07 12:38:26;;;;;;;5.47;1.97;;;16.10;79.70;;;;;;5056649;28;20051;-72